Terminal Aerodrome Forecast
Issued by NWS

Home | Current Version | Previous Version | Text Only | Print | Product List | Glossary On
Versions: 1 2 3 4 5 6 7 8 9 10 11 12
000
FTUS45 KTWC 270539
TAFOLS
TAF
KOLS 270539Z 2706/2806 19005KT P6SM SCT090 OVC200
     FM271000 18005KT P6SM FEW090 BKN200
     FM271900 21016G25KT P6SM SCT070 OVC180
     FM280200 20011KT P6SM VCSH BKN060 OVC110=

USA.gov is the U.S. government's official web portal to all federal, state and local government web resources and services.